臺北終端管制區 - 桃園北區雷達席

METAR RCTP 140300Z 32008KT 9999 FEW015 BKN025 BKN050 31/28 Q1008 NOSIG RMK A2979=

站台狀態:Offline
最後更新:2022-08-14 11:30:02